Time;durP1;ratioP1;P1;durP2;ratioP2;P2;SDS_P1;SDS_P2;PMS_P1;PMS_P2;Temp;Humidity;BMP_temperature;BMP_pressure;BME280_temperature;BME280_humidity;BME280_pressure;Samples;Min_cycle;Max_cycle;Signal;HPM_P1;HPM_P2
2022/06/29 00:00:17;;;;;;;5.35;2.25;;;;;;;;;;5084955;28;20039;-62
2022/06/29 00:02:44;;;;;;;6.85;2.55;;;;;;;;;;5075494;28;20128;-62
2022/06/29 00:05:11;;;;;;;5.30;2.40;;;;;;;;;;5069850;28;20049;-62
2022/06/29 00:07:37;;;;;;;5.32;2.70;;;;;;;;;;5066143;28;20452;-63
2022/06/29 00:10:04;;;;;;;8.57;2.88;;;;;;;;;;5073118;28;20167;-64
2022/06/29 00:12:30;;;;;;;3.38;2.40;;;;;;;;;;5083546;28;20040;-61
2022/06/29 00:14:56;;;;;;;4.20;3.22;;;;;;;;;;5070315;28;20047;-61
2022/06/29 00:17:22;;;;;;;3.60;2.42;;;;;;;;;;5092297;28;20079;-61
2022/06/29 00:19:48;;;;;;;3.95;2.70;;;;;;;;;;5083247;28;20043;-61
2022/06/29 00:22:15;;;;;;;4.05;2.60;;;;;;;;;;5082815;28;20072;-61
2022/06/29 00:24:41;;;;;;;6.78;2.80;;;;;;;;;;5076697;28;20047;-61
2022/06/29 00:27:08;;;;;;;3.05;2.55;;;;;;;;;;5088595;28;20442;-61
2022/06/29 00:29:34;;;;;;;3.15;2.67;;;;;;;;;;5081506;28;20037;-61
2022/06/29 00:32:00;;;;;;;6.72;2.90;;;;;;;;;;5082387;28;20485;-61
2022/06/29 00:34:26;;;;;;;5.55;2.72;;;;;;;;;;5076361;28;20056;-61
2022/06/29 00:36:52;;;;;;;3.95;2.72;;;;;;;;;;5072356;28;20497;-61
2022/06/29 00:39:18;;;;;;;5.18;2.78;;;;;;;;;;5086536;28;20039;-61
2022/06/29 00:41:46;;;;;;;3.60;2.72;;;;;;;;;;5081062;28;20073;-61
2022/06/29 00:44:15;;;;;;;4.38;3.15;;;;;;;;;;5088578;28;20079;-61
2022/06/29 00:46:49;;;;;;;5.35;2.90;;;;;;;;;;5075367;28;20115;-61
2022/06/29 00:49:16;;;;;;;7.22;3.15;;;;;;;;;;5086503;28;20048;-61
2022/06/29 00:51:45;;;;;;;3.42;2.70;;;;;;;;;;5082090;28;20503;-61
2022/06/29 00:54:13;;;;;;;4.65;2.97;;;;;;;;;;5082482;28;20044;-61
2022/06/29 00:56:40;;;;;;;5.28;3.38;;;;;;;;;;5089681;28;20044;-61
2022/06/29 00:59:06;;;;;;;5.20;2.92;;;;;;;;;;5093283;28;20498;-61
2022/06/29 01:01:33;;;;;;;4.80;3.10;;;;;;;;;;5080689;28;20123;-60
2022/06/29 01:03:59;;;;;;;3.50;3.20;;;;;;;;;;5081931;28;20068;-61
2022/06/29 01:06:25;;;;;;;4.13;2.97;;;;;;;;;;5081221;28;20114;-61
2022/06/29 01:08:51;;;;;;;5.07;3.00;;;;;;;;;;5084422;28;20032;-60
2022/06/29 01:11:17;;;;;;;5.55;3.20;;;;;;;;;;5075218;28;20079;-61
2022/06/29 01:13:44;;;;;;;7.28;3.63;;;;;;;;;;5088358;28;20032;-60
2022/06/29 01:16:10;;;;;;;4.07;3.30;;;;;;;;;;5079652;28;20042;-61
2022/06/29 01:18:37;;;;;;;5.57;3.50;;;;;;;;;;5073499;28;20033;-61
2022/06/29 01:21:09;;;;;;;4.78;3.30;;;;;;;;;;5084677;28;20445;-61
2022/06/29 01:23:35;;;;;;;5.57;3.30;;;;;;;;;;5076491;28;20059;-61
2022/06/29 01:26:05;;;;;;;5.97;3.50;;;;;;;;;;5092316;28;20036;-61
2022/06/29 01:28:31;;;;;;;4.20;3.45;;;;;;;;;;5064439;28;20537;-61
2022/06/29 01:30:58;;;;;;;5.53;3.60;;;;;;;;;;5087577;28;20482;-61
2022/06/29 01:33:24;;;;;;;4.25;3.58;;;;;;;;;;5077350;28;20447;-61
2022/06/29 01:35:50;;;;;;;4.07;3.35;;;;;;;;;;5076841;28;20114;-61
2022/06/29 01:38:17;;;;;;;3.58;3.28;;;;;;;;;;5091215;28;20032;-61
2022/06/29 01:40:43;;;;;;;7.38;3.40;;;;;;;;;;5077635;28;20028;-61
2022/06/29 01:43:09;;;;;;;4.32;3.03;;;;;;;;;;5091999;28;20374;-61
2022/06/29 01:45:35;;;;;;;6.47;3.80;;;;;;;;;;5083446;28;20555;-61
2022/06/29 01:48:01;;;;;;;5.13;3.30;;;;;;;;;;5087137;28;20089;-61
2022/06/29 01:50:27;;;;;;;3.70;3.20;;;;;;;;;;5088747;28;20040;-61
2022/06/29 01:52:53;;;;;;;5.53;3.15;;;;;;;;;;5091977;28;20427;-61
2022/06/29 01:55:19;;;;;;;4.07;3.67;;;;;;;;;;5092150;28;20043;-61
2022/06/29 01:57:45;;;;;;;6.65;3.72;;;;;;;;;;5092673;28;20071;-61
2022/06/29 02:00:12;;;;;;;5.53;3.72;;;;;;;;;;5085250;28;20076;-61
2022/06/29 02:02:38;;;;;;;5.55;3.28;;;;;;;;;;5086919;28;20417;-61
2022/06/29 02:05:04;;;;;;;4.38;3.60;;;;;;;;;;5073372;28;20037;-61
2022/06/29 02:07:30;;;;;;;5.13;4.00;;;;;;;;;;5075523;28;20093;-61
2022/06/29 02:09:56;;;;;;;5.00;3.78;;;;;;;;;;5088971;28;20032;-60
2022/06/29 02:12:22;;;;;;;4.47;3.50;;;;;;;;;;5086453;28;20047;-61
2022/06/29 02:14:48;;;;;;;4.35;3.47;;;;;;;;;;5072551;28;20040;-61
2022/06/29 02:17:14;;;;;;;4.97;3.90;;;;;;;;;;5090623;28;20472;-61
2022/06/29 02:19:40;;;;;;;4.15;3.65;;;;;;;;;;5087521;28;20068;-60
2022/06/29 02:22:06;;;;;;;5.47;3.80;;;;;;;;;;5082732;28;20111;-61
2022/06/29 02:24:32;;;;;;;4.18;3.75;;;;;;;;;;5085914;28;20032;-61
2022/06/29 02:26:58;;;;;;;4.22;3.70;;;;;;;;;;5091895;28;20040;-61
2022/06/29 02:29:24;;;;;;;4.05;3.65;;;;;;;;;;5090292;28;20054;-61
2022/06/29 02:34:44;;;;;;;7.68;4.20;;;;;;;;;;5091745;28;20036;-61
2022/06/29 02:37:11;;;;;;;4.45;4.00;;;;;;;;;;5084643;28;20036;-61
2022/06/29 02:39:38;;;;;;;7.13;4.03;;;;;;;;;;5091518;28;20038;-60
2022/06/29 02:42:04;;;;;;;4.22;3.45;;;;;;;;;;5090436;28;20217;-61
2022/06/29 02:44:30;;;;;;;4.63;4.10;;;;;;;;;;5076374;28;20155;-60
2022/06/29 02:46:56;;;;;;;7.13;3.92;;;;;;;;;;5086588;28;20032;-61
2022/06/29 02:49:22;;;;;;;4.93;3.95;;;;;;;;;;5069630;28;20443;-61
2022/06/29 02:51:48;;;;;;;5.68;4.22;;;;;;;;;;5080497;28;20123;-61
2022/06/29 02:54:14;;;;;;;5.30;4.20;;;;;;;;;;5086999;28;20476;-61
2022/06/29 02:56:40;;;;;;;5.07;4.03;;;;;;;;;;5091886;28;20114;-60
2022/06/29 02:59:06;;;;;;;4.43;3.88;;;;;;;;;;5089404;28;20040;-61
2022/06/29 03:01:32;;;;;;;5.38;3.90;;;;;;;;;;5080206;28;20037;-61
2022/06/29 03:03:58;;;;;;;5.43;4.20;;;;;;;;;;5075146;28;20051;-61
2022/06/29 03:06:24;;;;;;;4.25;3.85;;;;;;;;;;5071617;28;20033;-61
2022/06/29 03:08:50;;;;;;;4.75;4.35;;;;;;;;;;5085874;28;20032;-61
2022/06/29 03:11:16;;;;;;;7.10;4.47;;;;;;;;;;5063121;28;20036;-61
2022/06/29 03:13:42;;;;;;;4.13;3.72;;;;;;;;;;5088070;28;20036;-61
2022/06/29 03:16:09;;;;;;;7.00;4.57;;;;;;;;;;5085183;28;20508;-61
2022/06/29 03:18:35;;;;;;;5.22;4.65;;;;;;;;;;5086351;28;20085;-61
2022/06/29 03:21:01;;;;;;;5.63;4.47;;;;;;;;;;5080007;28;20035;-61
2022/06/29 03:23:27;;;;;;;4.82;4.25;;;;;;;;;;5077100;28;20512;-61
2022/06/29 03:25:53;;;;;;;6.60;4.45;;;;;;;;;;5089734;28;20040;-62
2022/06/29 03:28:19;;;;;;;7.15;4.50;;;;;;;;;;5090684;28;20452;-62
2022/06/29 03:30:45;;;;;;;4.65;3.70;;;;;;;;;;5080634;28;20044;-61
2022/06/29 03:33:11;;;;;;;4.40;3.72;;;;;;;;;;5087258;28;20036;-61
2022/06/29 03:35:37;;;;;;;4.75;4.30;;;;;;;;;;5083585;28;20036;-62
2022/06/29 03:38:03;;;;;;;5.75;4.25;;;;;;;;;;5088446;28;20032;-62
2022/06/29 03:40:29;;;;;;;4.55;4.13;;;;;;;;;;5082411;28;20043;-62
2022/06/29 03:42:55;;;;;;;5.50;4.35;;;;;;;;;;5087939;28;20416;-62
2022/06/29 03:45:22;;;;;;;7.18;4.28;;;;;;;;;;5080106;28;20055;-62
2022/06/29 03:47:48;;;;;;;5.28;4.70;;;;;;;;;;5080410;28;20044;-61
2022/06/29 03:50:14;;;;;;;6.97;4.57;;;;;;;;;;5083594;28;20040;-62
2022/06/29 03:52:40;;;;;;;5.18;4.60;;;;;;;;;;5081447;28;20040;-62
2022/06/29 03:55:07;;;;;;;5.18;3.95;;;;;;;;;;5089958;28;20044;-61
2022/06/29 03:57:33;;;;;;;5.75;4.75;;;;;;;;;;5090442;28;20036;-62
2022/06/29 03:59:59;;;;;;;6.63;4.88;;;;;;;;;;5075250;28;20121;-62
2022/06/29 04:02:25;;;;;;;7.53;4.28;;;;;;;;;;5083193;28;20397;-62
2022/06/29 04:04:52;;;;;;;5.88;4.65;;;;;;;;;;5087710;28;20047;-61
2022/06/29 04:07:18;;;;;;;5.60;4.82;;;;;;;;;;5065836;28;20037;-62
2022/06/29 04:09:44;;;;;;;6.13;5.03;;;;;;;;;;5088726;28;20055;-62
2022/06/29 04:12:10;;;;;;;6.20;4.75;;;;;;;;;;5075916;28;20451;-62
2022/06/29 04:14:36;;;;;;;6.95;4.80;;;;;;;;;;5085345;28;20036;-62
2022/06/29 04:17:02;;;;;;;4.93;4.40;;;;;;;;;;5095475;28;20051;-62
2022/06/29 04:19:28;;;;;;;5.03;4.47;;;;;;;;;;5078891;28;20041;-61
2022/06/29 04:21:55;;;;;;;5.57;4.97;;;;;;;;;;5076305;22;20044;-62
2022/06/29 04:24:21;;;;;;;5.57;4.93;;;;;;;;;;5072228;28;20075;-62
2022/06/29 04:26:47;;;;;;;6.00;4.95;;;;;;;;;;5065130;28;20119;-62
2022/06/29 04:29:14;;;;;;;7.03;4.90;;;;;;;;;;5065820;28;20529;-62
2022/06/29 04:31:40;;;;;;;5.47;4.38;;;;;;;;;;5060610;28;20040;-62
2022/06/29 04:34:06;;;;;;;5.15;4.65;;;;;;;;;;5069829;28;20086;-63
2022/06/29 04:36:32;;;;;;;5.15;4.63;;;;;;;;;;5070110;28;20090;-62
2022/06/29 04:38:58;;;;;;;5.47;4.97;;;;;;;;;;5073859;28;20040;-62
2022/06/29 04:41:24;;;;;;;5.22;4.72;;;;;;;;;;5063101;28;20561;-63
2022/06/29 04:43:51;;;;;;;5.18;4.68;;;;;;;;;;5069295;28;20079;-62
2022/06/29 04:46:20;;;;;;;5.50;5.00;;;;;;;;;;5065196;28;20406;-63
2022/06/29 04:48:55;;;;;;;6.68;5.50;;;;;;;;;;5065262;28;20082;-62
2022/06/29 04:51:21;;;;;;;7.40;5.70;;;;;;;;;;5063384;28;20449;-62
2022/06/29 04:53:47;;;;;;;6.30;5.65;;;;;;;;;;5067380;28;20049;-62
2022/06/29 04:56:14;;;;;;;6.30;5.40;;;;;;;;;;5064136;28;20537;-62
2022/06/29 04:58:40;;;;;;;8.27;5.68;;;;;;;;;;5067124;28;20162;-62
2022/06/29 05:01:06;;;;;;;8.48;5.78;;;;;;;;;;5064361;28;20536;-62
2022/06/29 05:03:32;;;;;;;6.82;5.18;;;;;;;;;;5071379;28;20051;-62
2022/06/29 05:05:58;;;;;;;7.68;5.50;;;;;;;;;;5068438;28;20075;-63
2022/06/29 05:08:24;;;;;;;6.80;5.57;;;;;;;;;;5065095;28;20040;-62
2022/06/29 05:10:50;;;;;;;7.03;5.35;;;;;;;;;;5064138;28;20043;-62
2022/06/29 05:13:16;;;;;;;7.15;5.68;;;;;;;;;;5069926;28;20047;-62
2022/06/29 05:15:42;;;;;;;6.13;5.53;;;;;;;;;;5061297;28;20037;-62
2022/06/29 05:18:09;;;;;;;7.20;5.72;;;;;;;;;;5069115;28;20052;-62
2022/06/29 05:20:35;;;;;;;5.80;5.22;;;;;;;;;;5063912;28;20039;-62
2022/06/29 05:23:01;;;;;;;7.50;5.75;;;;;;;;;;5066847;28;20425;-62
2022/06/29 05:25:27;;;;;;;5.90;5.30;;;;;;;;;;5062230;28;20076;-62
2022/06/29 05:27:53;;;;;;;6.88;5.60;;;;;;;;;;5066534;28;20032;-63
2022/06/29 05:30:19;;;;;;;6.60;5.90;;;;;;;;;;5065219;28;20041;-62
2022/06/29 05:32:45;;;;;;;9.18;5.97;;;;;;;;;;5064183;28;20043;-62
2022/06/29 05:35:11;;;;;;;7.30;5.47;;;;;;;;;;5064763;28;20401;-62
2022/06/29 05:37:37;;;;;;;7.15;5.78;;;;;;;;;;5062332;28;20037;-63
2022/06/29 05:40:04;;;;;;;6.90;5.32;;;;;;;;;;5063730;28;20036;-63
2022/06/29 05:42:30;;;;;;;9.93;5.40;;;;;;;;;;5068816;28;20511;-63
2022/06/29 05:44:56;;;;;;;7.93;5.55;;;;;;;;;;5064777;28;20076;-63
2022/06/29 05:47:22;;;;;;;6.10;5.38;;;;;;;;;;5055115;28;20040;-63
2022/06/29 05:49:48;;;;;;;7.40;4.78;;;;;;;;;;5069411;28;20047;-63
2022/06/29 05:52:14;;;;;;;5.82;4.97;;;;;;;;;;5065912;28;20029;-63
2022/06/29 05:54:40;;;;;;;5.32;4.70;;;;;;;;;;5062226;28;20370;-63
2022/06/29 05:57:06;;;;;;;6.65;4.95;;;;;;;;;;5063897;28;20398;-63
2022/06/29 05:59:32;;;;;;;5.95;4.75;;;;;;;;;;5063780;28;20513;-63
2022/06/29 06:01:58;;;;;;;5.50;4.93;;;;;;;;;;5065634;28;20071;-63
2022/06/29 06:04:25;;;;;;;11.00;4.97;;;;;;;;;;5063543;28;20049;-63
2022/06/29 06:06:52;;;;;;;5.25;4.75;;;;;;;;;;5064197;28;20047;-63
2022/06/29 06:09:22;;;;;;;6.47;4.97;;;;;;;;;;5069418;28;20045;-63
2022/06/29 06:11:48;;;;;;;6.53;4.70;;;;;;;;;;5059811;28;20080;-63
2022/06/29 06:14:14;;;;;;;5.35;4.68;;;;;;;;;;5055400;28;20033;-63
2022/06/29 06:16:40;;;;;;;5.20;4.70;;;;;;;;;;5072694;28;20036;-63
2022/06/29 06:19:06;;;;;;;7.88;4.60;;;;;;;;;;5064017;28;20036;-63
2022/06/29 06:21:32;;;;;;;6.15;4.60;;;;;;;;;;5068896;28;20504;-63
2022/06/29 06:23:58;;;;;;;6.20;4.43;;;;;;;;;;5064876;28;20045;-63
2022/06/29 06:26:24;;;;;;;6.03;4.72;;;;;;;;;;5060941;28;20049;-63
2022/06/29 06:28:52;;;;;;;5.35;3.97;;;;;;;;;;5070398;28;20452;-63
2022/06/29 06:31:18;;;;;;;5.35;4.68;;;;;;;;;;5065881;28;20123;-65
2022/06/29 06:33:44;;;;;;;7.78;4.28;;;;;;;;;;5068797;28;20036;-63
2022/06/29 06:36:10;;;;;;;5.75;3.97;;;;;;;;;;5069920;28;20036;-63
2022/06/29 06:38:36;;;;;;;4.80;4.03;;;;;;;;;;5067774;28;20401;-63
2022/06/29 06:43:47;;;;;;;4.38;3.80;;;;;;;;;;5071906;28;20040;-63
2022/06/29 06:46:13;;;;;;;4.63;4.15;;;;;;;;;;5056256;28;20029;-63
2022/06/29 06:48:39;;;;;;;5.40;3.83;;;;;;;;;;5067282;28;20040;-63
2022/06/29 06:51:05;;;;;;;5.63;4.00;;;;;;;;;;5055995;28;20048;-63
2022/06/29 06:53:31;;;;;;;6.57;4.13;;;;;;;;;;5054025;28;20096;-63
2022/06/29 06:55:57;;;;;;;5.10;3.92;;;;;;;;;;5065661;28;20040;-63
2022/06/29 06:58:23;;;;;;;4.70;3.60;;;;;;;;;;5066623;28;20040;-63
2022/06/29 07:00:49;;;;;;;4.30;3.90;;;;;;;;;;5061507;28;20039;-64
2022/06/29 07:03:15;;;;;;;6.47;3.47;;;;;;;;;;5066554;28;20123;-63
2022/06/29 07:05:41;;;;;;;4.22;3.45;;;;;;;;;;5063842;28;20052;-63
2022/06/29 07:08:07;;;;;;;3.65;3.35;;;;;;;;;;5060040;28;20123;-63
2022/06/29 07:10:33;;;;;;;6.85;3.58;;;;;;;;;;5071048;28;20033;-64
2022/06/29 07:12:59;;;;;;;10.45;4.43;;;;;;;;;;5055502;28;20506;-63
2022/06/29 07:15:25;;;;;;;3.17;2.88;;;;;;;;;;5067127;28;20074;-63
2022/06/29 07:17:51;;;;;;;3.80;3.30;;;;;;;;;;5061416;28;20032;-63
2022/06/29 07:20:17;;;;;;;4.53;2.72;;;;;;;;;;5059548;28;20040;-63
2022/06/29 07:22:43;;;;;;;5.38;3.42;;;;;;;;;;5062190;28;20029;-63
2022/06/29 07:25:09;;;;;;;5.97;3.13;;;;;;;;;;5066084;28;20513;-63
2022/06/29 07:27:35;;;;;;;3.53;2.75;;;;;;;;;;5059960;28;20045;-63
2022/06/29 07:30:01;;;;;;;3.88;3.10;;;;;;;;;;5058373;28;20123;-63
2022/06/29 07:32:28;;;;;;;4.70;2.70;;;;;;;;;;5059187;28;20044;-63
2022/06/29 07:34:53;;;;;;;3.90;2.58;;;;;;;;;;5059773;28;20037;-63
2022/06/29 07:37:20;;;;;;;3.65;2.70;;;;;;;;;;5060366;28;20041;-63
2022/06/29 07:39:46;;;;;;;4.85;2.50;;;;;;;;;;5067714;28;20099;-63
2022/06/29 07:42:12;;;;;;;2.95;2.17;;;;;;;;;;5069217;28;20078;-62
2022/06/29 07:44:38;;;;;;;6.85;2.92;;;;;;;;;;5060371;28;20301;-63
2022/06/29 07:47:04;;;;;;;2.95;2.10;;;;;;;;;;5057905;28;20044;-63
2022/06/29 07:49:30;;;;;;;3.58;2.20;;;;;;;;;;5060810;28;20047;-63
2022/06/29 07:51:57;;;;;;;5.05;2.08;;;;;;;;;;5065050;28;20172;-63
2022/06/29 07:54:23;;;;;;;3.03;2.40;;;;;;;;;;5069310;28;20161;-63
2022/06/29 07:56:49;;;;;;;3.55;2.10;;;;;;;;;;5062450;28;20089;-63
2022/06/29 07:59:15;;;;;;;4.65;1.98;;;;;;;;;;5063351;28;20041;-63
2022/06/29 08:01:41;;;;;;;5.25;2.45;;;;;;;;;;5060368;28;20554;-63
2022/06/29 08:04:07;;;;;;;3.08;1.98;;;;;;;;;;5062522;28;20124;-63
2022/06/29 08:06:33;;;;;;;4.07;2.00;;;;;;;;;;5064459;28;20170;-63
2022/06/29 08:09:00;;;;;;;5.88;2.08;;;;;;;;;;5066023;28;20033;-63
2022/06/29 08:11:26;;;;;;;3.45;2.00;;;;;;;;;;5067740;28;20075;-63
2022/06/29 08:13:52;;;;;;;4.10;1.88;;;;;;;;;;5067094;28;20119;-63
2022/06/29 08:16:18;;;;;;;3.83;2.22;;;;;;;;;;5067542;28;20116;-63
2022/06/29 08:18:44;;;;;;;2.78;1.67;;;;;;;;;;5056136;28;20051;-63
2022/06/29 08:21:10;;;;;;;2.80;1.63;;;;;;;;;;5067745;28;20486;-63
2022/06/29 08:23:36;;;;;;;2.20;1.83;;;;;;;;;;5063512;28;20540;-64
2022/06/29 08:26:02;;;;;;;3.35;1.98;;;;;;;;;;5070018;28;20028;-63
2022/06/29 08:28:28;;;;;;;4.15;1.80;;;;;;;;;;5060822;28;20041;-64
2022/06/29 08:30:54;;;;;;;5.78;2.20;;;;;;;;;;5049166;28;20040;-63
2022/06/29 08:33:23;;;;;;;5.55;2.35;;;;;;;;;;5072159;28;20043;-63
2022/06/29 08:35:50;;;;;;;2.88;1.80;;;;;;;;;;5071715;28;20028;-64
2022/06/29 08:38:16;;;;;;;4.85;2.00;;;;;;;;;;5066405;28;20128;-64
2022/06/29 08:40:46;;;;;;;3.88;1.90;;;;;;;;;;5060076;28;20033;-64
2022/06/29 08:43:13;;;;;;;5.40;1.90;;;;;;;;;;5063794;28;20036;-63
2022/06/29 08:45:42;;;;;;;3.03;2.10;;;;;;;;;;5068172;28;20082;-64
2022/06/29 08:48:08;;;;;;;2.42;1.73;;;;;;;;;;5065747;28;20497;-63
2022/06/29 08:50:35;;;;;;;3.70;1.70;;;;;;;;;;5067021;28;20079;-63
2022/06/29 08:53:02;;;;;;;4.65;1.75;;;;;;;;;;5066514;28;20033;-63
2022/06/29 08:55:29;;;;;;;3.20;1.83;;;;;;;;;;5068897;28;20044;-63
2022/06/29 08:57:55;;;;;;;3.70;1.92;;;;;;;;;;5066492;28;20563;-63
2022/06/29 09:00:24;;;;;;;2.65;1.73;;;;;;;;;;5064302;28;20044;-63
2022/06/29 09:02:50;;;;;;;2.95;2.20;;;;;;;;;;5063515;28;20044;-63
2022/06/29 09:05:17;;;;;;;5.65;1.95;;;;;;;;;;5066797;28;20049;-63
2022/06/29 09:07:43;;;;;;;1.98;1.77;;;;;;;;;;5059196;28;20033;-63
2022/06/29 09:10:12;;;;;;;4.35;1.85;;;;;;;;;;5067291;28;20424;-63
2022/06/29 09:12:38;;;;;;;2.95;1.60;;;;;;;;;;5063787;28;20093;-63
2022/06/29 09:15:05;;;;;;;2.15;1.77;;;;;;;;;;5064117;28;20506;-63
2022/06/29 09:17:32;;;;;;;2.05;1.85;;;;;;;;;;5067940;28;20044;-63
2022/06/29 09:19:58;;;;;;;6.80;2.20;;;;;;;;;;5060174;28;20044;-63
2022/06/29 09:22:24;;;;;;;2.78;1.88;;;;;;;;;;5052151;28;20163;-63
2022/06/29 09:24:51;;;;;;;4.53;1.85;;;;;;;;;;5052296;28;20087;-63
2022/06/29 09:27:17;;;;;;;4.68;1.90;;;;;;;;;;5070264;28;20037;-63
2022/06/29 09:29:44;;;;;;;4.28;1.80;;;;;;;;;;5053633;28;20588;-63
2022/06/29 09:32:13;;;;;;;4.78;2.08;;;;;;;;;;5067066;28;20051;-63
2022/06/29 09:34:44;;;;;;;5.47;2.10;;;;;;;;;;5062967;28;20041;-63
2022/06/29 09:37:15;;;;;;;3.20;1.88;;;;;;;;;;5064839;28;20047;-63
2022/06/29 09:39:47;;;;;;;3.58;2.20;;;;;;;;;;5061517;28;20045;-63
2022/06/29 09:42:16;;;;;;;3.55;2.03;;;;;;;;;;5052998;28;20580;-63
2022/06/29 09:44:43;;;;;;;3.63;2.30;;;;;;;;;;5058034;28;20045;-63
2022/06/29 09:47:17;;;;;;;3.97;2.40;;;;;;;;;;5061720;28;20345;-63
2022/06/29 09:49:44;;;;;;;3.78;2.08;;;;;;;;;;5061303;28;20409;-63
2022/06/29 09:52:11;;;;;;;6.28;2.88;;;;;;;;;;5046828;28;20037;-63
2022/06/29 09:54:41;;;;;;;4.75;2.58;;;;;;;;;;5053742;28;20041;-64
2022/06/29 09:57:08;;;;;;;4.53;2.40;;;;;;;;;;5062970;28;20036;-63
2022/06/29 10:02:37;;;;;;;4.35;2.78;;;;;;;;;;5069904;28;20127;-64
2022/06/29 10:05:06;;;;;;;;;;;;;;;;;;5066160;28;20058;-63
2022/06/29 10:07:33;;;;;;;3.60;2.80;;;;;;;;;;5072164;28;19916;-63
2022/06/29 10:09:59;;;;;;;3.13;2.60;;;;;;;;;;5072942;28;20044;-63
2022/06/29 10:15:49;;;;;;;3.33;2.55;;;;;;;;;;5059748;28;20037;-63
2022/06/29 10:18:15;;;;;;;3.67;2.50;;;;;;;;;;5063332;28;20047;-63
2022/06/29 10:20:41;;;;;;;3.63;2.47;;;;;;;;;;5066509;28;20109;-64
2022/06/29 10:23:07;;;;;;;3.63;2.40;;;;;;;;;;5082576;22;20128;-64
2022/06/29 10:25:35;;;;;;;4.82;2.70;;;;;;;;;;5050517;28;20128;-64
2022/06/29 10:28:15;;;;;;;3.88;2.60;;;;;;;;;;5052503;28;20514;-64
2022/06/29 10:30:42;;;;;;;3.20;2.55;;;;;;;;;;5059064;28;20106;-63
2022/06/29 10:33:37;;;;;;;5.32;2.67;;;;;;;;;;5043860;28;20467;-64
2022/06/29 10:36:07;;;;;;;4.80;2.70;;;;;;;;;;5041058;28;20053;-64
2022/06/29 10:38:56;;;;;;;3.42;3.03;;;;;;;;;;5051465;28;20048;-64
2022/06/29 10:44:07;;;;;;;4.47;3.10;;;;;;;;;;5049098;28;20044;-64
2022/06/29 10:46:52;;;;;;;4.85;3.17;;;;;;;;;;5049224;28;20033;-64
2022/06/29 10:49:19;;;;;;;3.30;2.90;;;;;;;;;;5041106;28;20406;-63
2022/06/29 10:51:46;;;;;;;5.57;3.45;;;;;;;;;;5054072;28;20037;-64
2022/06/29 10:54:32;;;;;;;5.63;3.33;;;;;;;;;;5051031;28;20414;-63
2022/06/29 10:56:59;;;;;;;4.43;3.45;;;;;;;;;;5060809;28;20460;-64
2022/06/29 10:59:32;;;;;;;4.30;3.33;;;;;;;;;;5055525;28;20440;-63
2022/06/29 11:02:11;;;;;;;3.65;3.28;;;;;;;;;;5048491;28;20037;-63
2022/06/29 11:04:37;;;;;;;4.47;3.20;;;;;;;;;;5049174;28;20032;-64
2022/06/29 11:12:34;;;;;;;5.03;3.10;;;;;;;;;;5051675;28;20041;-61
2022/06/29 11:17:48;;;;;;;4.75;3.28;;;;;;;;;;5049526;28;20075;-61
2022/06/29 11:20:18;;;;;;;5.10;3.70;;;;;;;;;;5055422;28;20063;-61
2022/06/29 11:22:55;;;;;;;3.83;2.95;;;;;;;;;;5048675;28;20041;-61
2022/06/29 11:25:21;;;;;;;7.18;3.50;;;;;;;;;;5051953;28;20048;-61
2022/06/29 11:27:48;;;;;;;5.35;3.58;;;;;;;;;;5049504;28;20122;-61
2022/06/29 11:30:19;;;;;;;4.82;3.10;;;;;;;;;;5050300;28;20041;-61
2022/06/29 11:32:46;;;;;;;5.93;3.40;;;;;;;;;;5045628;28;20042;-61
2022/06/29 11:35:13;;;;;;;4.95;3.53;;;;;;;;;;5052968;28;20037;-61
2022/06/29 11:37:48;;;;;;;5.95;3.05;;;;;;;;;;5050534;28;20518;-61
2022/06/29 11:40:14;;;;;;;5.72;3.60;;;;;;;;;;5050033;28;20613;-61
2022/06/29 11:45:44;;;;;;;4.60;3.70;;;;;;;;;;5049510;28;20053;-61
2022/06/29 11:48:30;;;;;;;5.75;3.40;;;;;;;;;;5049170;28;20044;-61
2022/06/29 11:50:58;;;;;;;4.65;3.63;;;;;;;;;;5055816;28;20043;-61
2022/06/29 11:53:36;;;;;;;6.47;3.65;;;;;;;;;;5052121;28;20441;-61
2022/06/29 11:56:08;;;;;;;6.65;3.45;;;;;;;;;;5050534;28;20064;-61
2022/06/29 11:58:34;;;;;;;6.40;3.90;;;;;;;;;;5049270;28;20091;-61
2022/06/29 12:01:00;;;;;;;4.30;3.22;;;;;;;;;;5055648;28;20445;-61
2022/06/29 12:03:27;;;;;;;4.97;3.50;;;;;;;;;;5051486;28;20043;-61
2022/06/29 12:05:57;;;;;;;5.25;4.07;;;;;;;;;;5049519;28;20078;-60
2022/06/29 12:08:23;;;;;;;5.80;4.00;;;;;;;;;;5056410;28;20395;-60
2022/06/29 12:10:49;;;;;;;4.63;3.47;;;;;;;;;;5070774;28;20033;-60
2022/06/29 12:13:15;;;;;;;6.55;3.83;;;;;;;;;;5054839;28;20052;-61
2022/06/29 12:15:41;;;;;;;6.65;3.90;;;;;;;;;;5055613;28;20442;-61
2022/06/29 12:18:07;;;;;;;5.75;3.88;;;;;;;;;;5031596;28;20094;-61
2022/06/29 12:20:33;;;;;;;6.90;4.28;;;;;;;;;;5049888;28;20474;-61
2022/06/29 12:22:59;;;;;;;3.97;3.58;;;;;;;;;;5054667;28;20171;-60
2022/06/29 12:25:25;;;;;;;8.82;3.72;;;;;;;;;;5052440;28;20040;-61
2022/06/29 12:27:51;;;;;;;5.07;3.42;;;;;;;;;;5056453;28;20502;-61
2022/06/29 12:30:17;;;;;;;7.18;3.90;;;;;;;;;;5051817;28;20048;-61
2022/06/29 12:32:43;;;;;;;8.38;4.40;;;;;;;;;;5053648;28;20111;-61
2022/06/29 12:35:09;;;;;;;4.82;3.70;;;;;;;;;;5051676;28;20037;-61
2022/06/29 12:37:35;;;;;;;5.55;3.97;;;;;;;;;;5064780;28;20483;-61
2022/06/29 12:40:01;;;;;;;5.85;3.75;;;;;;;;;;5053382;28;20045;-61
2022/06/29 12:42:27;;;;;;;3.67;3.28;;;;;;;;;;5053878;28;20041;-61
2022/06/29 12:44:53;;;;;;;7.43;4.18;;;;;;;;;;5052136;28;20083;-61
2022/06/29 12:47:19;;;;;;;6.40;4.22;;;;;;;;;;5055222;28;20456;-61
2022/06/29 12:49:45;;;;;;;15.13;4.40;;;;;;;;;;5054643;28;20119;-61
2022/06/29 12:52:11;;;;;;;4.50;3.72;;;;;;;;;;5053997;28;20117;-61
2022/06/29 12:54:37;;;;;;;6.60;4.05;;;;;;;;;;5052028;28;20036;-61
2022/06/29 12:57:04;;;;;;;5.00;4.35;;;;;;;;;;5054133;28;20037;-61
2022/06/29 12:59:30;;;;;;;5.35;3.65;;;;;;;;;;5057494;28;20513;-61
2022/06/29 13:01:56;;;;;;;5.43;3.38;;;;;;;;;;5054835;28;20065;-61
2022/06/29 13:04:23;;;;;;;4.80;3.80;;;;;;;;;;5042778;28;20423;-61
2022/06/29 13:06:49;;;;;;;5.07;4.18;;;;;;;;;;5054952;28;20136;-62
2022/06/29 13:09:15;;;;;;;4.00;3.60;;;;;;;;;;5057083;28;20144;-62
2022/06/29 13:11:41;;;;;;;4.43;4.03;;;;;;;;;;5053793;28;20041;-62
2022/06/29 13:14:07;;;;;;;6.65;4.13;;;;;;;;;;5054996;28;20562;-62
2022/06/29 13:16:33;;;;;;;4.65;4.10;;;;;;;;;;5060527;28;20120;-62
2022/06/29 13:18:59;;;;;;;4.18;3.80;;;;;;;;;;5051635;28;20068;-62
2022/06/29 13:21:25;;;;;;;4.95;4.05;;;;;;;;;;5053363;28;20076;-62
2022/06/29 13:23:51;;;;;;;4.63;4.15;;;;;;;;;;5052882;28;20048;-62
2022/06/29 13:26:17;;;;;;;4.90;4.20;;;;;;;;;;5057272;28;20048;-62
2022/06/29 13:28:43;;;;;;;4.63;4.10;;;;;;;;;;5052125;28;20121;-62
2022/06/29 13:31:12;;;;;;;4.50;3.78;;;;;;;;;;5047684;28;20113;-62
2022/06/29 13:33:39;;;;;;;4.70;4.22;;;;;;;;;;5052235;28;20120;-63
2022/06/29 13:36:05;;;;;;;4.93;4.25;;;;;;;;;;5051671;28;20043;-62
2022/06/29 13:38:31;;;;;;;5.20;4.70;;;;;;;;;;5056710;28;20037;-62
2022/06/29 13:40:57;;;;;;;4.43;4.03;;;;;;;;;;5053305;28;20068;-63
2022/06/29 13:43:23;;;;;;;6.57;4.30;;;;;;;;;;5057046;28;20037;-62
2022/06/29 13:45:50;;;;;;;5.82;4.00;;;;;;;;;;5056937;28;20037;-62
2022/06/29 13:48:16;;;;;;;5.30;4.10;;;;;;;;;;5056511;28;20057;-62
2022/06/29 13:50:44;;;;;;;6.15;4.30;;;;;;;;;;5041657;28;20072;-62
2022/06/29 13:53:10;;;;;;;4.50;4.10;;;;;;;;;;5049193;28;20037;-62
2022/06/29 13:55:36;;;;;;;4.55;4.15;;;;;;;;;;5047600;28;20387;-62
2022/06/29 13:58:03;;;;;;;4.40;4.00;;;;;;;;;;5051189;28;20041;-62
2022/06/29 14:00:29;;;;;;;4.60;4.20;;;;;;;;;;5048896;28;20060;-62
2022/06/29 14:02:56;;;;;;;5.10;4.15;;;;;;;;;;5051318;28;20048;-62
2022/06/29 14:05:22;;;;;;;4.53;3.90;;;;;;;;;;5064803;28;20123;-62
2022/06/29 14:07:48;;;;;;;4.55;4.03;;;;;;;;;;5052470;28;20036;-62
2022/06/29 14:10:14;;;;;;;5.53;4.20;;;;;;;;;;5053031;28;20074;-62
2022/06/29 14:12:40;;;;;;;5.60;4.70;;;;;;;;;;5056023;28;20032;-62
2022/06/29 14:15:06;;;;;;;6.07;4.57;;;;;;;;;;5054047;28;20055;-63
2022/06/29 14:17:32;;;;;;;7.75;4.43;;;;;;;;;;5053821;28;20375;-62
2022/06/29 14:19:58;;;;;;;4.80;4.00;;;;;;;;;;5057341;28;20044;-62
2022/06/29 14:22:24;;;;;;;4.88;4.03;;;;;;;;;;5065403;28;20047;-63
2022/06/29 14:24:50;;;;;;;5.50;3.90;;;;;;;;;;5050427;28;20136;-62
2022/06/29 14:27:16;;;;;;;4.75;4.05;;;;;;;;;;5058395;28;20117;-62
2022/06/29 14:29:42;;;;;;;9.93;4.00;;;;;;;;;;5046095;28;20123;-62
2022/06/29 14:32:08;;;;;;;4.72;4.10;;;;;;;;;;5051646;28;20036;-62
2022/06/29 14:34:34;;;;;;;5.55;3.78;;;;;;;;;;5049983;28;20076;-63
2022/06/29 14:37:01;;;;;;;6.03;4.03;;;;;;;;;;5057904;28;20375;-63
2022/06/29 14:39:47;;;;;;;5.47;3.70;;;;;;;;;;5045647;28;20562;-63
2022/06/29 14:42:13;;;;;;;7.15;3.78;;;;;;;;;;5049695;28;20033;-63
2022/06/29 14:44:39;;;;;;;6.18;4.47;;;;;;;;;;5051867;28;20044;-62
2022/06/29 14:47:05;;;;;;;4.55;4.00;;;;;;;;;;5042472;28;20040;-63
2022/06/29 14:49:32;;;;;;;6.35;3.80;;;;;;;;;;5056264;28;20033;-63
2022/06/29 14:51:58;;;;;;;6.18;3.88;;;;;;;;;;5057094;28;20033;-63
2022/06/29 14:54:24;;;;;;;5.18;3.78;;;;;;;;;;5043983;28;20135;-63
2022/06/29 14:56:50;;;;;;;6.43;4.10;;;;;;;;;;5045408;28;20498;-63
2022/06/29 14:59:16;;;;;;;8.25;4.13;;;;;;;;;;5056044;28;20089;-63
2022/06/29 15:01:42;;;;;;;4.97;4.00;;;;;;;;;;5049644;28;20470;-63
2022/06/29 15:04:08;;;;;;;5.90;4.13;;;;;;;;;;5050826;28;20037;-63
2022/06/29 15:06:34;;;;;;;5.18;4.15;;;;;;;;;;5050611;28;20033;-63